createdAt,value
2023-01-19T00:00:40.826Z,0.00
2023-01-19T00:01:40.771Z,0.00
2023-01-19T00:02:40.750Z,0.00
2023-01-19T00:03:40.729Z,0.00
2023-01-19T00:04:40.705Z,0.00
2023-01-19T00:05:40.722Z,0.00
2023-01-19T00:06:40.667Z,0.00
2023-01-19T00:07:40.645Z,0.00
2023-01-19T00:08:40.627Z,0.00
2023-01-19T00:09:40.610Z,0.00
2023-01-19T00:10:40.616Z,0.00
2023-01-19T00:11:40.572Z,0.00
2023-01-19T00:12:40.559Z,0.00
2023-01-19T00:13:40.531Z,0.00
2023-01-19T00:14:40.518Z,0.00
2023-01-19T00:15:40.519Z,0.00
2023-01-19T00:16:40.476Z,0.00
2023-01-19T00:17:40.455Z,0.00
2023-01-19T00:18:40.439Z,0.00
2023-01-19T00:19:40.427Z,0.00
2023-01-19T00:20:40.426Z,0.00
2023-01-19T00:21:40.888Z,0.00
2023-01-19T00:22:40.358Z,0.00
2023-01-19T00:23:40.343Z,0.00
2023-01-19T00:24:40.320Z,0.00
2023-01-19T00:25:40.330Z,0.00
2023-01-19T00:26:40.285Z,0.00
2023-01-19T00:27:40.262Z,0.00
2023-01-19T00:28:40.245Z,0.00
2023-01-19T00:29:40.225Z,0.00
2023-01-19T00:30:40.234Z,0.00
2023-01-19T00:31:40.199Z,0.00
2023-01-19T00:32:40.163Z,0.00
2023-01-19T00:33:40.142Z,0.00
2023-01-19T00:34:40.127Z,0.00
2023-01-19T00:35:40.140Z,0.00
2023-01-19T00:36:40.078Z,0.00
2023-01-19T00:37:40.065Z,0.00
2023-01-19T00:38:40.076Z,0.00
2023-01-19T00:39:40.032Z,0.00
2023-01-19T00:40:40.037Z,0.00
2023-01-19T00:41:39.978Z,0.00
2023-01-19T00:42:41.010Z,0.00
2023-01-19T00:43:39.944Z,0.00
2023-01-19T00:44:39.919Z,0.00
2023-01-19T00:45:40.041Z,0.00
2023-01-19T00:46:39.881Z,0.00
2023-01-19T00:47:39.868Z,0.00
2023-01-19T00:48:39.841Z,0.00
2023-01-19T00:49:39.827Z,0.00
2023-01-19T00:50:39.827Z,0.00
2023-01-19T00:51:39.778Z,0.00
2023-01-19T00:52:39.761Z,0.00
2023-01-19T00:53:39.740Z,0.00
2023-01-19T00:54:39.718Z,0.00
2023-01-19T00:55:39.724Z,0.00
2023-01-19T00:56:39.674Z,0.00
2023-01-19T00:57:39.656Z,0.00
2023-01-19T00:58:40.376Z,0.00
2023-01-19T00:59:39.615Z,0.00
2023-01-19T01:00:39.632Z,0.00
2023-01-19T01:01:45.002Z,0.00
2023-01-19T01:02:40.717Z,0.00
2023-01-19T01:03:39.563Z,0.00
2023-01-19T01:04:39.519Z,0.00
2023-01-19T01:05:39.539Z,0.00
2023-01-19T01:06:39.485Z,0.00
2023-01-19T01:07:39.466Z,0.00
2023-01-19T01:08:39.463Z,0.00
2023-01-19T01:09:39.425Z,0.00
2023-01-19T01:10:39.397Z,0.00
2023-01-19T01:11:39.379Z,0.00
2023-01-19T01:12:39.358Z,0.00
2023-01-19T01:13:39.359Z,0.00
2023-01-19T01:14:39.319Z,0.00
2023-01-19T01:15:39.293Z,0.00
2023-01-19T01:16:40.366Z,0.00
2023-01-19T01:17:40.260Z,0.00
2023-01-19T01:18:39.239Z,0.00
2023-01-19T01:19:39.215Z,0.00
2023-01-19T01:20:39.199Z,0.00
2023-01-19T01:21:39.209Z,0.00
2023-01-19T01:22:39.205Z,0.00
2023-01-19T01:23:39.151Z,0.00
2023-01-19T01:24:39.121Z,0.00
2023-01-19T01:25:39.100Z,0.00
2023-01-19T01:26:39.105Z,0.00
2023-01-19T01:27:39.062Z,0.00
2023-01-19T01:28:39.054Z,0.00
2023-01-19T01:29:39.023Z,0.00
2023-01-19T01:30:39.000Z,0.00
2023-01-19T01:31:39.084Z,0.00
2023-01-19T01:32:38.964Z,0.00
2023-01-19T01:33:40.737Z,0.00
2023-01-19T01:34:38.926Z,0.00
2023-01-19T01:35:38.903Z,0.00
2023-01-19T01:36:38.911Z,0.00
2023-01-19T01:37:38.869Z,0.00
2023-01-19T01:38:38.840Z,0.00
2023-01-19T01:39:38.829Z,0.00
2023-01-19T01:40:38.798Z,0.00
2023-01-19T01:41:38.805Z,0.00
2023-01-19T01:42:38.763Z,0.00
2023-01-19T01:43:38.740Z,0.00
2023-01-19T01:44:38.722Z,0.00
2023-01-19T01:45:38.750Z,0.00
2023-01-19T01:46:38.707Z,0.00
2023-01-19T01:47:38.668Z,0.00
2023-01-19T01:48:38.643Z,0.00
2023-01-19T01:49:38.623Z,0.00
2023-01-19T01:50:38.608Z,0.00
2023-01-19T01:51:38.652Z,0.00
2023-01-19T01:52:38.568Z,0.00
2023-01-19T01:53:38.555Z,0.00
2023-01-19T01:54:38.542Z,0.00
2023-01-19T01:55:38.518Z,0.00
2023-01-19T01:56:38.537Z,0.00
2023-01-19T01:57:38.475Z,0.00
2023-01-19T01:58:38.457Z,0.00
2023-01-19T01:59:38.438Z,0.00
2023-01-19T02:00:38.420Z,0.00
2023-01-19T02:01:38.480Z,0.00
2023-01-19T02:02:38.382Z,0.00
2023-01-19T02:03:38.390Z,0.00
2023-01-19T02:04:38.344Z,0.00
2023-01-19T02:05:38.331Z,0.00
2023-01-19T02:06:38.332Z,0.00
2023-01-19T02:07:38.286Z,0.00
2023-01-19T02:08:38.267Z,0.00
2023-01-19T02:09:38.249Z,0.00
2023-01-19T02:10:38.231Z,0.00
2023-01-19T02:11:38.238Z,0.00
2023-01-19T02:12:38.201Z,0.00
2023-01-19T02:13:38.177Z,0.00
2023-01-19T02:14:38.162Z,0.00
2023-01-19T02:15:38.136Z,0.00
2023-01-19T02:16:38.157Z,0.00
2023-01-19T02:17:38.098Z,0.00
2023-01-19T02:18:38.088Z,0.00
2023-01-19T02:19:38.075Z,0.00
2023-01-19T02:20:38.040Z,0.00
2023-01-19T02:21:38.050Z,0.00
2023-01-19T02:22:37.999Z,0.00
2023-01-19T02:23:37.992Z,0.00
2023-01-19T02:24:37.960Z,0.00
2023-01-19T02:25:37.952Z,0.00
2023-01-19T02:26:37.950Z,0.00
2023-01-19T02:27:37.906Z,0.00
2023-01-19T02:28:37.879Z,0.00
2023-01-19T02:29:37.891Z,0.00
2023-01-19T02:30:37.860Z,0.00
2023-01-19T02:31:37.854Z,0.00
2023-01-19T02:32:37.805Z,0.00
2023-01-19T02:33:37.781Z,0.00
2023-01-19T02:34:38.773Z,0.00
2023-01-19T02:35:37.747Z,0.00
2023-01-19T02:36:37.747Z,0.00
2023-01-19T02:37:37.711Z,0.00
2023-01-19T02:38:37.691Z,0.00
2023-01-19T02:39:37.671Z,0.00
2023-01-19T02:40:37.648Z,0.00
2023-01-19T02:41:37.651Z,0.00
2023-01-19T02:42:37.617Z,0.00
2023-01-19T02:43:37.592Z,0.00
2023-01-19T02:44:37.569Z,0.00
2023-01-19T02:45:37.551Z,0.00
2023-01-19T02:46:37.568Z,0.00
2023-01-19T02:47:37.506Z,0.00
2023-01-19T02:48:37.486Z,0.00
2023-01-19T02:49:37.469Z,0.00
2023-01-19T02:50:37.460Z,0.00
2023-01-19T02:51:37.450Z,0.00
2023-01-19T02:52:37.406Z,0.00
2023-01-19T02:53:37.392Z,0.00
2023-01-19T02:54:37.367Z,0.00
2023-01-19T02:55:37.344Z,0.00
2023-01-19T02:56:37.345Z,0.00
2023-01-19T02:57:37.303Z,0.00
2023-01-19T02:58:37.285Z,0.00
2023-01-19T02:59:37.268Z,0.00
2023-01-19T03:00:37.247Z,0.00
2023-01-19T03:01:37.396Z,0.00
2023-01-19T03:02:37.325Z,0.00
2023-01-19T03:03:37.180Z,0.00
2023-01-19T03:04:37.165Z,0.00
2023-01-19T03:05:37.145Z,0.00
2023-01-19T03:06:37.148Z,0.00
2023-01-19T03:07:37.094Z,0.00
2023-01-19T03:08:38.079Z,0.00
2023-01-19T03:09:37.062Z,0.00
2023-01-19T03:10:37.044Z,0.00
2023-01-19T03:11:37.045Z,0.00
2023-01-19T03:12:37.000Z,0.00
2023-01-19T03:13:36.990Z,0.00
2023-01-19T03:14:36.974Z,0.00
2023-01-19T03:15:36.956Z,0.00
2023-01-19T03:16:36.974Z,0.00
2023-01-19T03:17:36.900Z,0.00
2023-01-19T03:18:36.884Z,0.00
2023-01-19T03:19:36.869Z,0.00
2023-01-19T03:20:36.841Z,0.00
2023-01-19T03:21:36.860Z,0.00
2023-01-19T03:22:36.797Z,0.00
2023-01-19T03:23:36.783Z,0.00
2023-01-19T03:24:37.753Z,0.00
2023-01-19T03:25:37.738Z,0.00
2023-01-19T03:26:36.745Z,0.00
2023-01-19T03:27:36.701Z,0.00
2023-01-19T03:28:36.677Z,0.00
2023-01-19T03:29:36.680Z,0.00
2023-01-19T03:30:36.645Z,0.00
2023-01-19T03:31:36.647Z,0.00
2023-01-19T03:32:36.598Z,0.00
2023-01-19T03:33:36.583Z,0.00
2023-01-19T03:34:36.557Z,0.00
2023-01-19T03:35:36.540Z,0.00
2023-01-19T03:36:36.544Z,0.00
2023-01-19T03:37:36.494Z,0.00
2023-01-19T03:38:36.481Z,0.00
2023-01-19T03:39:36.457Z,0.00
2023-01-19T03:40:36.440Z,0.00
2023-01-19T03:41:36.444Z,0.00
2023-01-19T03:42:36.398Z,0.00
2023-01-19T03:43:36.374Z,0.00
2023-01-19T03:44:36.355Z,0.00
2023-01-19T03:45:36.363Z,0.00
2023-01-19T03:46:36.348Z,0.00
2023-01-19T03:47:36.310Z,0.00
2023-01-19T03:48:36.278Z,0.00
2023-01-19T03:49:36.256Z,0.00
2023-01-19T03:50:36.267Z,0.00
2023-01-19T03:51:36.253Z,0.00
2023-01-19T03:52:36.195Z,0.00
2023-01-19T03:53:36.176Z,0.00
2023-01-19T03:54:36.162Z,0.00
2023-01-19T03:55:36.135Z,0.00
2023-01-19T03:56:36.114Z,0.00
2023-01-19T03:57:36.121Z,0.00
2023-01-19T03:58:36.075Z,0.00
2023-01-19T03:59:36.058Z,0.00
2023-01-19T04:00:36.039Z,0.00
2023-01-19T04:01:36.088Z,0.00
2023-01-19T04:02:36.042Z,0.00
2023-01-19T04:03:35.976Z,0.00
2023-01-19T04:04:35.964Z,0.00
2023-01-19T04:05:35.938Z,0.00
2023-01-19T04:06:35.915Z,0.00
2023-01-19T04:07:35.924Z,0.00
2023-01-19T04:08:35.875Z,0.00
2023-01-19T04:09:35.856Z,0.00
2023-01-19T04:10:35.838Z,0.00
2023-01-19T04:11:35.815Z,0.00
2023-01-19T04:12:35.816Z,0.00
2023-01-19T04:13:35.777Z,0.00
2023-01-19T04:14:35.759Z,0.00
2023-01-19T04:15:35.799Z,0.00
2023-01-19T04:16:35.720Z,0.00
2023-01-19T04:17:35.751Z,0.00
2023-01-19T04:18:35.681Z,0.00
2023-01-19T04:19:35.650Z,0.00
2023-01-19T04:20:36.646Z,0.00
2023-01-19T04:21:35.623Z,0.00
2023-01-19T04:22:35.624Z,0.00
2023-01-19T04:23:35.581Z,0.00
2023-01-19T04:24:35.563Z,0.00
2023-01-19T04:25:37.887Z,0.00
2023-01-19T04:26:35.522Z,0.00
2023-01-19T04:27:35.525Z,0.00
2023-01-19T04:28:35.481Z,0.00
2023-01-19T04:29:35.474Z,0.00
2023-01-19T04:30:35.449Z,0.00
2023-01-19T04:31:35.468Z,0.00
2023-01-19T04:32:35.430Z,0.00
2023-01-19T04:33:35.413Z,0.00
2023-01-19T04:34:35.372Z,0.00
2023-01-19T04:35:35.346Z,0.00
2023-01-19T04:36:35.324Z,0.00
2023-01-19T04:37:35.333Z,0.00
2023-01-19T04:38:35.280Z,0.00
2023-01-19T04:39:35.266Z,0.00
2023-01-19T04:40:35.243Z,0.00
2023-01-19T04:41:35.224Z,0.00
2023-01-19T04:42:35.232Z,0.00
2023-01-19T04:43:35.186Z,0.00
2023-01-19T04:44:35.167Z,0.00
2023-01-19T04:45:35.145Z,0.00
2023-01-19T04:46:35.203Z,0.00
2023-01-19T04:47:35.135Z,0.00
2023-01-19T04:48:35.716Z,0.00
2023-01-19T04:49:35.085Z,0.00
2023-01-19T04:50:35.045Z,0.00
2023-01-19T04:51:35.030Z,0.00
2023-01-19T04:52:35.160Z,0.00
2023-01-19T04:53:34.989Z,0.00
2023-01-19T04:54:35.004Z,0.00
2023-01-19T04:55:34.951Z,0.00
2023-01-19T04:56:34.934Z,0.00
2023-01-19T04:57:34.953Z,0.00
2023-01-19T04:58:34.894Z,0.00
2023-01-19T04:59:34.874Z,0.00
2023-01-19T05:00:34.857Z,0.00
2023-01-19T05:01:34.920Z,0.00
2023-01-19T05:02:34.953Z,0.00
2023-01-19T05:03:34.796Z,0.00
2023-01-19T05:04:34.780Z,0.00
2023-01-19T05:05:34.756Z,0.00
2023-01-19T05:06:34.757Z,0.00
2023-01-19T05:07:34.742Z,0.00
2023-01-19T05:08:34.701Z,0.00
2023-01-19T05:09:34.679Z,0.00
2023-01-19T05:10:34.663Z,0.00
2023-01-19T05:11:34.646Z,0.00
2023-01-19T05:12:34.651Z,0.00
2023-01-19T05:13:34.606Z,0.00
2023-01-19T05:14:34.585Z,0.00
2023-01-19T05:15:34.569Z,0.00
2023-01-19T05:16:34.568Z,0.00
2023-01-19T05:17:34.581Z,0.00
2023-01-19T05:18:34.510Z,0.00
2023-01-19T05:19:34.490Z,0.00
2023-01-19T05:20:34.472Z,0.00
2023-01-19T05:21:34.453Z,0.00
2023-01-19T05:22:34.457Z,0.00
2023-01-19T05:23:34.412Z,0.00
2023-01-19T05:24:34.397Z,0.00
2023-01-19T05:25:34.377Z,0.00
2023-01-19T05:26:34.355Z,0.00
2023-01-19T05:27:34.359Z,0.00
2023-01-19T05:28:34.314Z,0.00
2023-01-19T05:29:34.291Z,0.00
2023-01-19T05:30:34.336Z,0.00
2023-01-19T05:31:34.340Z,0.00
2023-01-19T05:32:34.259Z,0.00
2023-01-19T05:33:34.214Z,0.00
2023-01-19T05:34:34.192Z,0.00
2023-01-19T05:35:36.202Z,0.00
2023-01-19T05:36:35.155Z,0.00
2023-01-19T05:37:34.169Z,0.00
2023-01-19T05:38:35.559Z,0.00
2023-01-19T05:39:35.099Z,0.00
2023-01-19T05:40:34.082Z,0.00
2023-01-19T05:41:34.075Z,0.00
2023-01-19T05:42:34.074Z,0.00
2023-01-19T05:43:34.027Z,0.00
2023-01-19T05:44:34.006Z,0.00
2023-01-19T05:45:34.035Z,0.00
2023-01-19T05:46:34.019Z,0.00
2023-01-19T05:47:33.964Z,0.00
2023-01-19T05:48:33.930Z,0.00
2023-01-19T05:49:33.900Z,0.00
2023-01-19T05:50:33.884Z,0.00
2023-01-19T05:51:33.858Z,0.00
2023-01-19T05:52:33.868Z,0.00
2023-01-19T05:53:33.821Z,0.00
2023-01-19T05:54:33.816Z,0.00
2023-01-19T05:55:33.786Z,0.00
2023-01-19T05:56:33.776Z,0.00
2023-01-19T05:57:33.791Z,0.00
2023-01-19T05:58:33.729Z,0.00
2023-01-19T05:59:33.717Z,0.00
2023-01-19T06:00:33.691Z,0.00
2023-01-19T06:01:33.677Z,0.00
2023-01-19T06:02:33.685Z,0.00
2023-01-19T06:03:33.685Z,0.00
2023-01-19T06:04:33.626Z,0.00
2023-01-19T06:05:33.600Z,0.00
2023-01-19T06:06:33.574Z,0.00
2023-01-19T06:07:33.586Z,0.00
2023-01-19T06:08:33.542Z,0.00
2023-01-19T06:09:33.514Z,0.00
2023-01-19T06:10:33.496Z,0.00
2023-01-19T06:11:33.476Z,0.00
2023-01-19T06:12:33.504Z,0.00
2023-01-19T06:13:33.441Z,0.00
2023-01-19T06:14:33.419Z,0.00
2023-01-19T06:15:33.403Z,0.00
2023-01-19T06:16:33.424Z,0.00
2023-01-19T06:17:33.385Z,0.00
2023-01-19T06:18:33.342Z,0.00
2023-01-19T06:19:33.312Z,0.00
2023-01-19T06:20:34.300Z,0.00
2023-01-19T06:21:33.282Z,0.00
2023-01-19T06:22:33.287Z,0.00
2023-01-19T06:23:33.238Z,0.00
2023-01-19T06:24:34.226Z,0.00
2023-01-19T06:25:33.220Z,0.00
2023-01-19T06:26:33.193Z,0.00
2023-01-19T06:27:33.194Z,0.00
2023-01-19T06:28:33.144Z,0.00
2023-01-19T06:29:33.127Z,0.00
2023-01-19T06:30:33.130Z,0.00
2023-01-19T06:31:33.123Z,0.00
2023-01-19T06:32:33.100Z,0.00
2023-01-19T06:33:33.045Z,0.00
2023-01-19T06:34:33.031Z,0.00
2023-01-19T06:35:33.009Z,4.00
2023-01-19T06:36:33.009Z,4.00
2023-01-19T06:37:32.994Z,4.00
2023-01-19T06:38:32.956Z,4.00
2023-01-19T06:39:32.929Z,0.00
2023-01-19T06:40:32.912Z,0.00
2023-01-19T06:41:32.896Z,0.00
2023-01-19T06:42:32.901Z,0.00
2023-01-19T06:43:32.858Z,4.00
2023-01-19T06:44:32.848Z,4.00
2023-01-19T06:45:32.859Z,0.00
2023-01-19T06:46:32.789Z,4.00
2023-01-19T06:47:32.801Z,4.00
2023-01-19T06:48:32.769Z,4.00
2023-01-19T06:49:32.732Z,4.00
2023-01-19T06:50:32.721Z,4.00
2023-01-19T06:51:32.708Z,4.00
2023-01-19T06:52:32.824Z,4.00
2023-01-19T06:53:32.652Z,8.00
2023-01-19T06:54:32.632Z,8.00
2023-01-19T06:55:32.611Z,4.00
2023-01-19T06:56:32.599Z,8.00
2023-01-19T06:57:32.603Z,8.00
2023-01-19T06:58:32.556Z,8.00
2023-01-19T06:59:32.545Z,12.00
2023-01-19T07:00:32.521Z,12.00
2023-01-19T07:01:32.647Z,12.00
2023-01-19T07:02:32.655Z,16.00
2023-01-19T07:03:32.486Z,16.00
2023-01-19T07:04:32.432Z,16.00
2023-01-19T07:05:32.433Z,20.00
2023-01-19T07:06:32.396Z,20.00
2023-01-19T07:07:32.402Z,20.00
2023-01-19T07:08:32.356Z,24.00
2023-01-19T07:09:32.332Z,28.00
2023-01-19T07:11:25.108Z,32.00
2023-01-19T07:11:33.359Z,40.00
2023-01-19T07:12:32.302Z,48.00
2023-01-19T07:13:33.164Z,56.00
2023-01-19T07:14:32.227Z,64.00
2023-01-19T07:15:32.208Z,76.00
2023-01-19T07:16:32.213Z,84.00
2023-01-19T07:17:32.197Z,100.00
2023-01-19T07:18:32.151Z,120.00
2023-01-19T07:19:32.131Z,132.00
2023-01-19T07:20:32.132Z,144.00
2023-01-19T07:21:32.095Z,156.00
2023-01-19T07:22:32.112Z,152.00
2023-01-19T07:23:32.080Z,152.00
2023-01-19T07:24:32.035Z,164.00
2023-01-19T07:25:32.029Z,196.00
2023-01-19T07:26:31.992Z,212.00
2023-01-19T07:27:31.977Z,244.00
2023-01-19T07:28:31.975Z,272.00
2023-01-19T07:29:31.938Z,300.00
2023-01-19T07:30:31.944Z,316.00
2023-01-19T07:31:32.010Z,324.00
2023-01-19T07:32:31.886Z,340.00
2023-01-19T07:33:31.882Z,364.00
2023-01-19T07:34:31.837Z,416.00
2023-01-19T07:35:31.815Z,452.00
2023-01-19T07:36:31.810Z,516.00
2023-01-19T07:37:31.777Z,548.00
2023-01-19T07:38:31.779Z,572.00
2023-01-19T07:39:31.735Z,588.00
2023-01-19T07:40:31.713Z,680.00
2023-01-19T07:41:31.694Z,912.00
2023-01-19T07:42:31.675Z,1092.00
2023-01-19T07:43:31.685Z,1204.00
2023-01-19T07:44:31.637Z,1224.00
2023-01-19T07:45:31.615Z,1364.00
2023-01-19T07:46:31.596Z,1456.00
2023-01-19T07:47:31.563Z,1560.00
2023-01-19T07:48:32.585Z,1592.00
2023-01-19T07:49:31.548Z,1704.00
2023-01-19T07:50:31.521Z,1908.00
2023-01-19T07:51:31.492Z,1868.00
2023-01-19T07:52:32.486Z,1892.00
2023-01-19T07:53:31.491Z,1824.00
2023-01-19T07:54:31.446Z,1800.00
2023-01-19T07:55:31.427Z,1808.00
2023-01-19T07:56:32.829Z,1776.00
2023-01-19T07:57:32.418Z,1864.00
2023-01-19T07:58:31.401Z,1772.00
2023-01-19T07:59:31.356Z,1728.00
2023-01-19T08:00:31.343Z,1640.00
2023-01-19T08:01:31.546Z,1616.00
2023-01-19T08:02:31.351Z,1640.00
2023-01-19T08:03:31.305Z,1612.00
2023-01-19T08:04:31.286Z,1600.00
2023-01-19T08:05:31.245Z,1568.00
2023-01-19T08:06:31.229Z,1556.00
2023-01-19T08:07:31.208Z,1552.00
2023-01-19T08:08:31.218Z,1548.00
2023-01-19T08:09:31.173Z,1560.00
2023-01-19T08:10:31.153Z,1572.00
2023-01-19T08:11:31.144Z,1564.00
2023-01-19T08:12:31.120Z,1568.00
2023-01-19T08:13:31.133Z,1600.00
2023-01-19T08:14:31.081Z,1684.00
2023-01-19T08:15:31.136Z,1760.00
2023-01-19T08:16:31.051Z,1780.00
2023-01-19T08:17:31.029Z,1756.00
2023-01-19T08:18:31.053Z,1852.00
2023-01-19T08:19:30.987Z,1944.00
2023-01-19T08:20:30.992Z,1936.00
2023-01-19T08:21:30.951Z,1896.00
2023-01-19T08:22:30.934Z,2084.00
2023-01-19T08:23:30.944Z,2064.00
2023-01-19T08:24:30.896Z,2100.00
2023-01-19T08:25:30.879Z,2176.00
2023-01-19T08:26:30.862Z,2260.00
2023-01-19T08:27:30.842Z,2420.00
2023-01-19T08:28:30.840Z,2652.00
2023-01-19T08:29:30.817Z,2872.00
2023-01-19T08:30:30.781Z,3200.00
2023-01-19T08:31:30.847Z,3560.00
2023-01-19T08:32:30.764Z,3852.00
2023-01-19T08:33:30.750Z,3784.00
2023-01-19T08:34:30.696Z,3844.00
2023-01-19T08:35:30.676Z,3628.00
2023-01-19T08:36:30.684Z,3464.00
2023-01-19T08:37:31.818Z,3472.00
2023-01-19T08:38:30.647Z,3616.00
2023-01-19T08:39:30.603Z,3736.00
2023-01-19T08:40:30.589Z,3924.00
2023-01-19T08:41:30.565Z,4080.00
2023-01-19T08:42:30.550Z,4020.00
2023-01-19T08:43:30.564Z,3860.00
2023-01-19T08:44:30.528Z,3600.00
2023-01-19T08:45:30.492Z,3332.00
2023-01-19T08:46:30.479Z,2992.00
2023-01-19T08:47:30.486Z,2620.00
2023-01-19T08:48:30.462Z,2392.00
2023-01-19T08:49:30.431Z,2164.00
2023-01-19T08:50:30.426Z,1908.00
2023-01-19T08:51:30.390Z,1552.00
2023-01-19T08:52:30.372Z,1392.00
2023-01-19T08:53:30.371Z,1280.00
2023-01-19T08:54:30.356Z,1304.00
2023-01-19T08:55:30.336Z,1276.00
2023-01-19T08:56:30.294Z,1280.00
2023-01-19T08:57:30.274Z,1280.00
2023-01-19T08:58:30.282Z,1308.00
2023-01-19T08:59:30.240Z,1344.00
2023-01-19T09:00:30.216Z,1360.00
2023-01-19T09:01:30.281Z,1348.00
2023-01-19T09:02:30.235Z,1368.00
2023-01-19T09:03:30.191Z,1508.00
2023-01-19T09:04:30.152Z,1604.00
2023-01-19T09:05:30.128Z,1584.00
2023-01-19T09:06:30.107Z,1796.00
2023-01-19T09:07:32.438Z,1972.00
2023-01-19T09:08:30.086Z,2220.00
2023-01-19T09:09:31.061Z,2348.00
2023-01-19T09:10:30.031Z,2452.00
2023-01-19T09:11:30.015Z,2520.00
2023-01-19T09:12:29.992Z,2540.00
2023-01-19T09:13:30.006Z,2604.00
2023-01-19T09:14:29.963Z,2420.00
2023-01-19T09:15:29.948Z,2668.00
2023-01-19T09:16:29.928Z,2764.00
2023-01-19T09:17:29.902Z,2984.00
2023-01-19T09:18:29.914Z,3400.00
2023-01-19T09:19:29.872Z,3848.00
2023-01-19T09:20:29.853Z,3968.00
2023-01-19T09:21:29.839Z,4360.00
2023-01-19T09:22:29.825Z,4724.00
2023-01-19T09:23:29.823Z,5164.00
2023-01-19T09:24:29.787Z,5320.00
2023-01-19T09:25:29.785Z,5388.00
2023-01-19T09:26:31.649Z,5384.00
2023-01-19T09:27:29.813Z,5344.00
2023-01-19T09:28:29.749Z,5096.00
2023-01-19T09:29:29.689Z,5256.00
2023-01-19T09:30:29.669Z,5496.00
2023-01-19T09:31:29.800Z,5656.00
2023-01-19T09:32:29.630Z,5900.00
2023-01-19T09:33:29.642Z,6032.00
2023-01-19T09:34:29.598Z,6256.00
2023-01-19T09:35:29.588Z,6188.00
2023-01-19T09:36:29.556Z,5960.00
2023-01-19T09:37:29.542Z,5756.00
2023-01-19T09:38:29.578Z,5620.00
2023-01-19T09:39:29.535Z,5564.00
2023-01-19T09:40:29.497Z,5592.00
2023-01-19T09:41:29.468Z,5528.00
2023-01-19T09:42:29.453Z,5552.00
2023-01-19T09:43:30.265Z,5596.00
2023-01-19T09:44:29.414Z,5704.00
2023-01-19T09:45:29.392Z,5596.00
2023-01-19T09:46:29.417Z,5428.00
2023-01-19T09:47:29.353Z,5244.00
2023-01-19T09:48:29.363Z,4860.00
2023-01-19T09:49:29.317Z,4524.00
2023-01-19T09:50:29.299Z,4304.00
2023-01-19T09:51:29.278Z,4152.00
2023-01-19T09:52:29.263Z,3996.00
2023-01-19T09:53:29.270Z,3728.00
2023-01-19T09:54:29.230Z,3392.00
2023-01-19T09:55:29.208Z,3180.00
2023-01-19T09:56:29.196Z,3116.00
2023-01-19T09:57:29.174Z,2996.00
2023-01-19T09:58:30.767Z,2896.00
2023-01-19T09:59:29.136Z,2880.00
2023-01-19T10:00:29.168Z,2780.00
2023-01-19T10:01:29.226Z,2668.00
2023-01-19T10:02:29.094Z,2456.00
2023-01-19T10:03:29.154Z,2232.00
2023-01-19T10:04:29.054Z,2072.00
2023-01-19T10:05:29.023Z,2088.00
2023-01-19T10:06:29.005Z,2048.00
2023-01-19T10:07:28.987Z,1944.00
2023-01-19T10:08:28.994Z,1888.00
2023-01-19T10:09:28.955Z,1856.00
2023-01-19T10:10:28.931Z,1708.00
2023-01-19T10:11:34.523Z,1688.00
2023-01-19T10:12:30.891Z,1804.00
2023-01-19T10:13:28.925Z,1952.00
2023-01-19T10:14:28.889Z,2084.00
2023-01-19T10:15:28.849Z,2124.00
2023-01-19T10:16:28.859Z,2072.00
2023-01-19T10:17:28.800Z,1992.00
2023-01-19T10:18:28.814Z,2012.00
2023-01-19T10:19:28.772Z,2160.00
2023-01-19T10:20:28.747Z,2176.00
2023-01-19T10:21:28.727Z,2264.00
2023-01-19T10:22:28.739Z,2500.00
2023-01-19T10:23:28.690Z,2732.00
2023-01-19T10:24:28.715Z,3256.00
2023-01-19T10:25:28.667Z,3448.00
2023-01-19T10:26:28.650Z,3652.00
2023-01-19T10:27:28.620Z,3752.00
2023-01-19T10:28:28.599Z,3884.00
2023-01-19T10:29:28.619Z,3988.00
2023-01-19T10:30:29.582Z,4300.00
2023-01-19T10:31:28.668Z,4688.00
2023-01-19T10:32:28.526Z,4892.00
2023-01-19T10:33:28.552Z,5260.00
2023-01-19T10:34:28.513Z,5200.00
2023-01-19T10:35:28.667Z,5160.00
2023-01-19T10:36:28.471Z,5096.00
2023-01-19T10:37:28.570Z,4928.00
2023-01-19T10:38:28.524Z,5320.00
2023-01-19T10:39:28.485Z,5836.00
2023-01-19T10:40:28.494Z,5856.00
2023-01-19T10:41:28.462Z,5976.00
2023-01-19T10:42:28.368Z,5812.00
2023-01-19T10:43:28.415Z,5832.00
2023-01-19T10:44:28.354Z,5760.00
2023-01-19T10:45:28.334Z,5684.00
2023-01-19T10:46:28.269Z,5412.00
2023-01-19T10:47:28.306Z,5128.00
2023-01-19T10:48:28.260Z,4968.00
2023-01-19T10:49:28.245Z,4948.00
2023-01-19T10:50:28.195Z,5176.00
2023-01-19T10:51:28.190Z,5140.00
2023-01-19T10:52:28.162Z,4952.00
2023-01-19T10:53:28.140Z,4824.00
2023-01-19T10:54:28.149Z,4728.00
2023-01-19T10:55:28.103Z,4864.00
2023-01-19T10:56:28.131Z,4972.00
2023-01-19T10:57:28.076Z,5132.00
2023-01-19T10:58:28.045Z,5416.00
2023-01-19T10:59:28.065Z,5528.00
2023-01-19T11:00:28.069Z,5232.00
2023-01-19T11:01:28.162Z,5212.00
2023-01-19T11:02:28.224Z,5516.00
2023-01-19T11:03:28.051Z,5620.00
2023-01-19T11:04:28.065Z,5596.00
2023-01-19T11:05:27.945Z,5896.00
2023-01-19T11:06:27.905Z,5752.00
2023-01-19T11:07:27.892Z,5868.00
2023-01-19T11:08:27.869Z,6068.00
2023-01-19T11:09:27.879Z,6224.00
2023-01-19T11:10:27.836Z,5956.00
2023-01-19T11:11:27.813Z,5792.00
2023-01-19T11:12:27.797Z,5868.00
2023-01-19T11:13:27.780Z,5724.00
2023-01-19T11:14:27.785Z,5628.00
2023-01-19T11:15:27.761Z,5796.00
2023-01-19T11:16:27.774Z,5708.00
2023-01-19T11:17:27.712Z,5872.00
2023-01-19T11:18:27.712Z,5732.00
2023-01-19T11:19:27.702Z,5960.00
2023-01-19T11:20:27.656Z,6432.00
2023-01-19T11:21:27.646Z,6656.00
2023-01-19T11:22:27.621Z,7352.00
2023-01-19T11:23:27.603Z,8008.00
2023-01-19T11:24:27.606Z,8332.00
2023-01-19T11:25:27.595Z,8848.00
2023-01-19T11:26:27.544Z,9344.00
2023-01-19T11:27:27.527Z,9476.00
2023-01-19T11:28:27.510Z,9096.00
2023-01-19T11:29:27.502Z,9148.00
2023-01-19T11:30:27.505Z,9168.00
2023-01-19T11:31:27.578Z,9272.00
2023-01-19T11:32:27.431Z,9460.00
2023-01-19T11:33:27.432Z,10048.00
2023-01-19T11:34:27.425Z,10056.00
2023-01-19T11:35:27.389Z,8988.00
2023-01-19T11:36:27.494Z,8256.00
2023-01-19T11:37:27.352Z,7992.00
2023-01-19T11:38:27.353Z,8100.00
2023-01-19T11:39:27.341Z,8472.00
2023-01-19T11:40:27.298Z,8460.00
2023-01-19T11:41:27.267Z,7932.00
2023-01-19T11:42:27.248Z,7820.00
2023-01-19T11:43:31.872Z,7764.00
2023-01-19T11:44:28.243Z,8008.00
2023-01-19T11:45:27.358Z,7604.00
2023-01-19T11:46:27.203Z,7368.00
2023-01-19T11:47:27.163Z,6996.00
2023-01-19T11:48:27.139Z,6928.00
2023-01-19T11:49:27.150Z,7540.00
2023-01-19T11:50:27.106Z,7920.00
2023-01-19T11:51:27.089Z,7424.00
2023-01-19T11:52:27.066Z,6720.00
2023-01-19T11:53:27.050Z,6608.00
2023-01-19T11:54:27.060Z,6376.00
2023-01-19T11:55:27.016Z,6552.00
2023-01-19T11:56:26.998Z,6284.00
2023-01-19T11:57:26.978Z,6716.00
2023-01-19T11:58:26.980Z,6824.00
2023-01-19T11:59:26.963Z,7144.00
2023-01-19T12:00:26.925Z,7028.00
2023-01-19T12:01:26.957Z,7068.00
2023-01-19T12:02:26.932Z,6980.00
2023-01-19T12:03:26.894Z,7180.00
2023-01-19T12:04:26.872Z,6928.00
2023-01-19T12:05:26.834Z,6724.00
2023-01-19T12:06:26.832Z,6760.00
2023-01-19T12:07:26.792Z,6872.00
2023-01-19T12:08:26.772Z,6384.00
2023-01-19T12:09:26.752Z,6128.00
2023-01-19T12:10:26.738Z,6088.00
2023-01-19T12:11:26.739Z,6312.00
2023-01-19T12:12:26.693Z,6016.00
2023-01-19T12:13:26.677Z,5876.00
2023-01-19T12:14:26.702Z,6140.00
2023-01-19T12:15:26.637Z,5864.00
2023-01-19T12:16:26.660Z,5176.00
2023-01-19T12:17:26.601Z,4788.00
2023-01-19T12:18:26.582Z,4424.00
2023-01-19T12:19:26.586Z,4352.00
2023-01-19T12:20:26.555Z,4248.00
2023-01-19T12:21:26.524Z,4024.00
2023-01-19T12:22:26.503Z,3784.00
2023-01-19T12:23:26.487Z,3632.00
2023-01-19T12:24:26.532Z,3564.00
2023-01-19T12:25:26.448Z,3364.00
2023-01-19T12:26:26.432Z,3220.00
2023-01-19T12:27:26.413Z,3172.00
2023-01-19T12:28:26.391Z,3112.00
2023-01-19T12:29:26.404Z,3284.00
2023-01-19T12:30:26.370Z,3016.00
2023-01-19T12:31:26.433Z,2936.00
2023-01-19T12:32:26.327Z,3028.00
2023-01-19T12:33:26.311Z,3088.00
2023-01-19T12:34:26.309Z,3216.00
2023-01-19T12:35:26.265Z,3212.00
2023-01-19T12:36:26.250Z,3332.00
2023-01-19T12:37:26.234Z,3332.00
2023-01-19T12:38:26.208Z,3548.00
2023-01-19T12:39:26.222Z,3548.00
2023-01-19T12:40:26.179Z,3456.00
2023-01-19T12:41:26.155Z,3408.00
2023-01-19T12:42:26.163Z,3468.00
2023-01-19T12:43:26.115Z,3516.00
2023-01-19T12:44:26.127Z,3440.00
2023-01-19T12:45:26.087Z,3196.00